Time;durP1;ratioP1;P1;durP2;ratioP2;P2;SDS_P1;SDS_P2;PMS_P1;PMS_P2;Temp;Humidity;BMP_temperature;BMP_pressure;BME280_temperature;BME280_humidity;BME280_pressure;Samples;Min_cycle;Max_cycle;Signal;HPM_P1;HPM_P2
2023/12/12 00:00:21;;;;;;;2.95;0.90;;;;;;;7.12;100.00;100794.09;5033525;28;20071;-73
2023/12/12 00:02:46;;;;;;;1.67;0.95;;;;;;;7.07;100.00;100799.41;5033043;28;20037;-74
2023/12/12 00:05:13;;;;;;;2.65;0.75;;;;;;;7.05;100.00;100788.19;5034972;28;20359;-73
2023/12/12 00:07:39;;;;;;;2.47;1.00;;;;;;;7.03;100.00;100797.78;5033928;28;20041;-73
2023/12/12 00:10:05;;;;;;;2.80;0.88;;;;;;;7.00;100.00;100787.44;5034900;28;20033;-73
2023/12/12 00:12:30;;;;;;;2.05;0.93;;;;;;;6.99;100.00;100790.13;5034367;28;20516;-73
2023/12/12 00:14:55;;;;;;;3.63;1.20;;;;;;;6.95;100.00;100791.06;5034948;28;20029;-73
2023/12/12 00:17:21;;;;;;;3.65;0.80;;;;;;;6.92;100.00;100786.81;5034917;28;20048;-73
2023/12/12 00:19:46;;;;;;;1.23;0.70;;;;;;;6.88;100.00;100787.78;5034918;28;20048;-73
2023/12/12 00:22:11;;;;;;;1.92;0.90;;;;;;;6.80;100.00;100792.31;5027421;28;20025;-73
2023/12/12 00:24:37;;;;;;;2.22;0.90;;;;;;;6.68;100.00;100789.16;5016276;28;20057;-73
2023/12/12 00:27:02;;;;;;;3.15;0.88;;;;;;;6.61;100.00;100790.19;5035575;28;20372;-73
2023/12/12 00:29:30;;;;;;;2.05;0.75;;;;;;;6.54;100.00;100799.03;5034458;28;20061;-73
2023/12/12 00:31:55;;;;;;;4.05;1.02;;;;;;;6.45;100.00;100800.13;5034793;28;20037;-73
2023/12/12 00:34:20;;;;;;;5.22;1.70;;;;;;;6.41;100.00;100792.44;5035213;28;20065;-73
2023/12/12 00:36:46;;;;;;;3.88;1.30;;;;;;;6.32;100.00;100791.75;5034753;28;20036;-73
2023/12/12 00:39:11;;;;;;;1.20;0.80;;;;;;;6.30;100.00;100795.28;5035156;28;20036;-73
2023/12/12 00:41:37;;;;;;;1.95;1.10;;;;;;;6.25;100.00;100795.38;5016602;28;20021;-73
2023/12/12 00:44:02;;;;;;;2.40;1.15;;;;;;;6.24;100.00;100792.81;5035104;28;20041;-73
2023/12/12 00:46:28;;;;;;;2.97;1.13;;;;;;;6.20;100.00;100786.00;5034539;28;20033;-73
2023/12/12 00:48:53;;;;;;;2.75;1.30;;;;;;;6.19;100.00;100776.50;5034520;28;20044;-73
2023/12/12 00:51:19;;;;;;;3.25;1.17;;;;;;;6.18;100.00;100769.56;5034999;28;20348;-73
2023/12/12 00:53:44;;;;;;;2.40;1.20;;;;;;;6.18;100.00;100770.41;5034221;28;20232;-73
2023/12/12 00:56:09;;;;;;;1.55;1.02;;;;;;;6.25;100.00;100768.53;5034725;28;20263;-73
2023/12/12 00:58:34;;;;;;;1.92;1.10;;;;;;;6.26;100.00;100771.09;5034129;28;20308;-73
2023/12/12 01:01:00;;;;;;;2.42;1.30;;;;;;;6.25;100.00;100768.53;5035254;28;20252;-73
2023/12/12 01:03:25;;;;;;;5.18;1.33;;;;;;;6.24;100.00;100766.81;5034770;28;20075;-73
2023/12/12 01:05:51;;;;;;;2.78;1.20;;;;;;;6.19;100.00;100758.28;5034218;28;20033;-73
2023/12/12 01:08:16;;;;;;;1.80;1.25;;;;;;;6.15;100.00;100762.72;5034512;28;20056;-73
2023/12/12 01:10:41;;;;;;;2.85;1.30;;;;;;;6.13;100.00;100754.06;5016711;28;20023;-73
2023/12/12 01:13:07;;;;;;;2.78;1.20;;;;;;;6.10;100.00;100757.59;5034359;28;20060;-73
2023/12/12 01:15:32;;;;;;;2.67;1.40;;;;;;;6.09;100.00;100752.44;5033797;28;20033;-73
2023/12/12 01:17:58;;;;;;;5.43;1.42;;;;;;;6.06;100.00;100762.94;5034255;28;20236;-73
2023/12/12 01:20:23;;;;;;;3.00;1.48;;;;;;;6.05;100.00;100748.22;5034057;28;20136;-73
2023/12/12 01:22:48;;;;;;;1.65;1.38;;;;;;;6.03;100.00;100747.38;5034285;28;20043;-73
2023/12/12 01:25:14;;;;;;;4.75;1.70;;;;;;;6.01;100.00;100747.41;5034142;28;20036;-73
2023/12/12 01:35:14;;;;;;;2.63;1.50;;;;;;;5.89;100.00;100726.88;5050934;28;20132;-73
2023/12/12 01:37:39;;;;;;;4.38;1.30;;;;;;;5.87;100.00;100733.84;5051860;28;20040;-73
2023/12/12 01:40:05;;;;;;;2.00;1.50;;;;;;;5.85;100.00;100733.88;5052340;28;20060;-73
2023/12/12 01:42:30;;;;;;;3.17;1.83;;;;;;;5.84;100.00;100740.00;5052060;28;20052;-73
2023/12/12 01:44:56;;;;;;;3.05;1.52;;;;;;;5.78;100.00;100740.09;5050724;28;20501;-73
2023/12/12 01:47:21;;;;;;;3.13;1.70;;;;;;;5.72;100.00;100742.84;5051950;28;20059;-73
2023/12/12 01:49:47;;;;;;;2.92;1.83;;;;;;;5.68;100.00;100736.88;5049999;28;20041;-73
2023/12/12 01:52:13;;;;;;;4.68;1.77;;;;;;;5.62;100.00;100737.00;5050369;28;20251;-73
2023/12/12 01:54:44;;;;;;;4.10;1.80;;;;;;;5.57;100.00;100729.31;5051092;28;20119;-73
2023/12/12 01:57:11;;;;;;;2.22;1.90;;;;;;;5.55;100.00;100736.28;5050197;28;20075;-73
2023/12/12 01:59:38;;;;;;;4.63;2.03;;;;;;;5.55;100.00;100733.69;5043274;28;20045;-73
2023/12/12 02:02:03;;;;;;;3.13;1.95;;;;;;;5.56;100.00;100737.97;5050558;28;20525;-73
2023/12/12 02:05:06;;;;;;;3.53;2.05;;;;;;;5.51;100.00;100741.56;5050677;28;20048;-73
2023/12/12 02:08:08;;;;;;;4.53;2.20;;;;;;;5.44;100.00;100733.06;5049349;28;20048;-73
2023/12/12 02:11:11;;;;;;;3.22;2.05;;;;;;;5.39;100.00;100735.75;5049529;28;20430;-73
2023/12/12 02:14:14;;;;;;;4.18;2.20;;;;;;;5.39;100.00;100729.69;5048701;28;20088;-73
2023/12/12 02:17:16;;;;;;;3.58;2.15;;;;;;;5.37;100.00;100728.88;5047495;28;20387;-73
2023/12/12 02:20:19;;;;;;;3.78;2.13;;;;;;;5.38;100.00;100739.25;5046648;28;20128;-73
2023/12/12 02:23:22;;;;;;;2.40;2.20;;;;;;;5.36;100.00;100730.59;5050175;28;20116;-73
2023/12/12 02:26:24;;;;;;;3.88;2.20;;;;;;;5.30;100.00;100741.13;5048422;28;20049;-73
2023/12/12 02:29:27;;;;;;;4.30;2.22;;;;;;;5.24;100.00;100741.25;5051361;28;20086;-73
2023/12/12 02:32:30;;;;;;;3.00;2.70;;;;;;;5.22;100.00;100744.75;5048486;28;20076;-73
2023/12/12 02:35:32;;;;;;;4.13;2.22;;;;;;;5.19;100.00;100737.91;5050168;28;20287;-73
2023/12/12 02:38:35;;;;;;;3.95;2.72;;;;;;;5.17;100.00;100724.94;5050869;28;20076;-73
2023/12/12 02:41:38;;;;;;;5.82;3.00;;;;;;;5.12;100.00;100713.78;5045376;28;20041;-73
2023/12/12 02:44:41;;;;;;;7.13;2.90;;;;;;;5.10;100.00;100709.53;5044749;28;20520;-73
2023/12/12 02:47:43;;;;;;;5.05;3.25;;;;;;;5.07;100.00;100713.03;5051445;28;20310;-73
2023/12/12 02:50:46;;;;;;;5.72;3.17;;;;;;;5.03;100.00;100716.56;5052792;28;20053;-73
2023/12/12 02:53:49;;;;;;;7.15;3.22;;;;;;;4.98;100.00;100713.22;5055080;28;20059;-73
2023/12/12 02:56:51;;;;;;;7.07;3.92;;;;;;;4.96;100.00;100723.63;5048592;28;20045;-73
2023/12/12 02:59:54;;;;;;;6.72;3.58;;;;;;;4.90;100.00;100707.31;5052043;28;20112;-73
2023/12/12 03:02:57;;;;;;;5.82;3.35;;;;;;;4.85;100.00;100712.59;5053745;28;20299;-73
2023/12/12 03:06:00;;;;;;;5.75;3.75;;;;;;;4.84;100.00;100704.81;5050333;28;20298;-73
2023/12/12 03:09:02;;;;;;;5.82;4.53;;;;;;;4.86;100.00;100698.75;5053653;28;20247;-73
2023/12/12 03:12:05;;;;;;;4.32;3.78;;;;;;;4.91;100.00;100702.13;5048432;28;20041;-73
2023/12/12 03:15:08;;;;;;;7.20;4.68;;;;;;;4.90;100.00;100704.72;5048350;28;20257;-73
2023/12/12 03:18:10;;;;;;;6.50;4.18;;;;;;;4.84;100.00;100699.63;5052254;28;20048;-73
2023/12/12 03:21:13;;;;;;;8.82;5.45;;;;;;;4.79;100.00;100699.75;5054737;28;20064;-73
2023/12/12 03:24:16;;;;;;;6.20;4.63;;;;;;;4.75;100.00;100700.69;5047688;28;20064;-73
2023/12/12 03:27:19;;;;;;;9.15;5.63;;;;;;;4.75;100.00;100695.50;5049642;28;20126;-73
2023/12/12 03:30:22;;;;;;;8.27;5.90;;;;;;;4.77;100.00;100691.16;5048692;28;20037;-73
2023/12/12 03:33:25;;;;;;;11.40;6.38;;;;;;;4.76;100.00;100690.25;5053945;28;20228;-73
2023/12/12 03:36:28;;;;;;;12.77;6.60;;;;;;;4.76;100.00;100682.47;5053099;28;20044;-73
2023/12/12 03:39:30;;;;;;;16.23;6.55;;;;;;;4.75;100.00;100688.56;5047032;28;20070;-73
2023/12/12 03:42:33;;;;;;;16.00;7.15;;;;;;;4.74;100.00;100681.66;5053583;28;20249;-73
2023/12/12 03:45:35;;;;;;;9.25;6.63;;;;;;;4.75;100.00;100679.94;5051204;28;20059;-73
2023/12/12 03:48:38;;;;;;;10.52;6.75;;;;;;;4.73;100.00;100676.50;5054650;28;20086;-73
2023/12/12 03:51:41;;;;;;;12.20;7.10;;;;;;;4.71;100.00;100670.47;5054593;28;20045;-73
2023/12/12 03:54:43;;;;;;;9.45;6.97;;;;;;;4.69;100.00;100664.47;5053970;28;20112;-73
2023/12/12 03:57:47;;;;;;;14.38;7.53;;;;;;;4.71;100.00;100658.38;5049340;28;20071;-73
2023/12/12 04:00:50;;;;;;;14.45;7.32;;;;;;;4.80;100.00;100657.34;5046705;28;20044;-73
2023/12/12 04:03:55;;;;;;;11.70;7.88;;;;;;;4.84;100.00;100651.22;5044671;28;20060;-73
2023/12/12 04:06:58;;;;;;;10.57;7.72;;;;;;;4.89;100.00;100641.56;5054581;28;20045;-73
2023/12/12 04:10:00;;;;;;;17.90;7.57;;;;;;;5.01;100.00;100632.69;5052841;28;20047;-73
2023/12/12 04:13:03;;;;;;;21.65;9.80;;;;;;;5.04;100.00;100624.84;5047619;28;20059;-73
2023/12/12 04:16:06;;;;;;;17.23;8.63;;;;;;;5.08;100.00;100613.50;5051119;28;20037;-73
2023/12/12 04:19:08;;;;;;;19.85;9.85;;;;;;;5.15;100.00;100606.47;5044473;28;20150;-73
2023/12/12 04:22:11;;;;;;;20.27;8.90;;;;;;;5.22;100.00;100602.84;5048926;28;20287;-73
2023/12/12 04:25:14;;;;;;;15.20;7.53;;;;;;;5.28;100.00;100604.44;5043280;28;20037;-73
2023/12/12 04:28:17;;;;;;;14.88;7.13;;;;;;;5.32;100.00;100600.88;5048287;28;20040;-73
2023/12/12 04:31:19;;;;;;;19.13;7.93;;;;;;;5.35;100.00;100614.66;5042333;28;20087;-73
2023/12/12 04:34:22;;;;;;;21.42;7.93;;;;;;;5.37;100.00;100605.06;5052234;28;20247;-73
2023/12/12 04:37:25;;;;;;;15.20;7.32;;;;;;;5.42;100.00;100610.19;5047810;28;20064;-73
2023/12/12 04:40:29;;;;;;;16.35;8.52;;;;;;;5.42;100.00;100607.59;5050147;28;20122;-73
2023/12/12 04:43:32;;;;;;;14.68;7.95;;;;;;;5.43;100.00;100598.88;5053125;28;20070;-73
2023/12/12 04:46:35;;;;;;;13.68;8.07;;;;;;;5.46;100.00;100604.00;5053591;28;20263;-73
2023/12/12 04:49:37;;;;;;;11.57;7.05;;;;;;;5.48;100.00;100599.63;5050267;28;20100;-73
2023/12/12 04:52:40;;;;;;;11.43;7.43;;;;;;;5.51;100.00;100598.69;5051798;28;20075;-73
2023/12/12 04:55:43;;;;;;;16.70;9.07;;;;;;;5.52;100.00;100600.41;5051210;28;20399;-73
2023/12/12 04:58:46;;;;;;;14.93;8.10;;;;;;;5.56;100.00;100602.03;5053110;28;20429;-73
2023/12/12 05:01:48;;;;;;;15.90;7.53;;;;;;;5.58;100.00;100601.13;5051263;28;20053;-73
